Time;durP1;ratioP1;P1;durP2;ratioP2;P2;SDS_P1;SDS_P2;PMS_P1;PMS_P2;Temp;Humidity;BMP_temperature;BMP_pressure;BME280_temperature;BME280_humidity;BME280_pressure;Samples;Min_cycle;Max_cycle;Signal;HPM_P1;HPM_P2
2022/08/13 00:01:05;;;;;;;;;;;;;;;;;;2217823;66;1220;-53
2022/08/13 00:03:41;;;;;;;;;;;;;;;;;;2218450;58;1953;-53
2022/08/13 00:06:54;;;;;;;;;;;;;;;;;;2217000;58;1152;-53
2022/08/13 00:09:09;;;;;;;;;;;;;;;;;;2217937;66;2020;-53
2022/08/13 00:14:34;;;;;;;;;;;;;;;;;;2218266;66;1078;-53
2022/08/13 00:17:08;;;;;;;;;;;;;;;;;;2218156;66;1937;-53
2022/08/13 00:19:47;;;;;;;;;;;;;;;;;;2218806;66;1131;-54
2022/08/13 00:22:25;;;;;;;;;;;;;;;;;;2218464;66;1347;-53
2022/08/13 00:24:59;;;;;;;;;;;;;;;;;;2219419;66;1195;-53
2022/08/13 00:27:32;;;;;;;;;;;;;;;;;;2219944;66;1064;-54
2022/08/13 00:30:07;;;;;;;;;;;;;;;;;;2219132;66;1157;-55
2022/08/13 00:32:41;;;;;;;;;;;;;;;;;;2220017;66;1208;-53
2022/08/13 00:35:18;;;;;;;;;;;;;;;;;;2218722;66;1230;-54
2022/08/13 00:37:52;;;;;;;;;;;;;;;;;;2218581;66;1978;-53
2022/08/13 00:40:26;;;;;;;;;;;;;;;;;;2220153;66;1162;-53
2022/08/13 00:43:02;;;;;;;;;;;;;;;;;;2218718;66;1290;-53
2022/08/13 00:45:36;;;;;;;;;;;;;;;;;;2218264;66;1243;-53
2022/08/13 00:51:16;;;;;;;;;;;;;;;;;;2214616;66;1413;-53
2022/08/13 00:53:49;;;;;;;;;;;;;;;;;;2214545;59;1215;-53
2022/08/13 00:56:23;;;;;;;;;;;;;;;;;;2216512;66;1906;-53
2022/08/13 00:58:56;;;;;;;;;;;;;;;;;;2217340;66;1041;-53
2022/08/13 01:01:30;;;;;;;;;;;;;;;;;;2218081;58;1659;-53
2022/08/13 01:04:03;;;;;;;;;;;;;;;;;;2218932;58;1468;-53
2022/08/13 01:06:40;;;;;;;;;;;;;;;;;;2217667;66;1158;-53
2022/08/13 01:09:13;;;;;;;;;;;;;;;;;;2217846;66;1221;-53
2022/08/13 01:11:47;;;;;;;;;;;;;;;;;;2218847;58;1379;-54
2022/08/13 01:14:24;;;;;;;;;;;;;;;;;;2218117;66;1072;-53
2022/08/13 01:16:57;;;;;;;;;;;;;;;;;;2218454;66;1939;-53
2022/08/13 01:19:34;;;;;;;;;;;;;;;;;;2218768;66;1329;-53
2022/08/13 01:22:10;;;;;;;;;;;;;;;;;;2217951;59;1190;-52
2022/08/13 01:24:44;;;;;;;;;;;;;;;;;;2219158;66;1103;-53
2022/08/13 01:27:18;;;;;;;;;;;;;;;;;;2217742;66;1184;-53
2022/08/13 01:29:51;;;;;;;;;;;;;;;;;;2218337;66;1033;-54
2022/08/13 01:32:26;;;;;;;;;;;;;;;;;;2218371;66;1379;-54
2022/08/13 01:35:00;;;;;;;;;;;;;;;;;;2217581;66;1301;-53
2022/08/13 01:37:37;;;;;;;;;;;;;;;;;;2218592;58;1923;-53
2022/08/13 01:40:11;;;;;;;;;;;;;;;;;;2217801;66;1162;-53
2022/08/13 01:42:48;;;;;;;;;;;;;;;;;;2218527;66;1200;-53
2022/08/13 01:45:21;;;;;;;;;;;;;;;;;;2217283;66;1222;-54
2022/08/13 01:50:44;;;;;;;;;;;;;;;;;;2218100;66;1050;-54
2022/08/13 02:04:01;;;;;;;;;;;;;;;;;;2250192;58;2665;-64
2022/08/13 02:06:34;;;;;;;;;;;;;;;;;;2216069;58;1194;-63
2022/08/13 02:09:07;;;;;;;;;;;;;;;;;;2215599;59;1232;-64
2022/08/13 02:11:41;;;;;;;;;;;;;;;;;;2216338;58;1260;-63
2022/08/13 02:14:15;;;;;;;;;;;;;;;;;;2213933;66;1179;-61
2022/08/13 02:16:48;;;;;;;;;;;;;;;;;;2213799;66;1976;-63
2022/08/13 02:19:24;;;;;;;;;;;;;;;;;;2214566;66;1192;-64
2022/08/13 02:22:00;;;;;;;;;;;;;;;;;;2213700;59;1174;-63
2022/08/13 02:24:33;;;;;;;;;;;;;;;;;;2213808;66;1194;-63
2022/08/13 02:27:06;;;;;;;;;;;;;;;;;;2213268;66;1182;-63
2022/08/13 02:29:39;;;;;;;;;;;;;;;;;;2214007;59;1341;-63
2022/08/13 02:32:12;;;;;;;;;;;;;;;;;;2213953;66;1351;-63
2022/08/13 02:34:50;;;;;;;;;;;;;;;;;;2213681;67;1031;-60
2022/08/13 02:37:24;;;;;;;;;;;;;;;;;;2214337;66;1984;-62
2022/08/13 02:39:57;;;;;;;;;;;;;;;;;;2213932;66;1240;-62
2022/08/13 02:42:32;;;;;;;;;;;;;;;;;;2214977;66;1377;-63
2022/08/13 02:45:07;;;;;;;;;;;;;;;;;;2213268;66;1184;-62
2022/08/13 02:47:40;;;;;;;;;;;;;;;;;;2214457;66;1226;-63
2022/08/13 02:50:16;;;;;;;;;;;;;;;;;;2213812;66;1198;-64
2022/08/13 02:52:51;;;;;;;;;;;;;;;;;;2213617;66;1210;-64
2022/08/13 02:55:25;;;;;;;;;;;;;;;;;;2213962;66;1216;-63
2022/08/13 02:57:59;;;;;;;;;;;;;;;;;;2213966;66;1927;-63
2022/08/13 03:00:32;;;;;;;;;;;;;;;;;;2213541;66;1190;-63
2022/08/13 03:03:06;;;;;;;;;;;;;;;;;;2212971;59;2401;-64
2022/08/13 03:05:42;;;;;;;;;;;;;;;;;;2213866;59;1740;-63
2022/08/13 03:08:15;;;;;;;;;;;;;;;;;;2215418;59;1184;-63
2022/08/13 03:10:49;;;;;;;;;;;;;;;;;;2213679;59;1252;-63
2022/08/13 03:13:24;;;;;;;;;;;;;;;;;;2213950;59;1311;-63
2022/08/13 03:15:58;;;;;;;;;;;;;;;;;;2213942;67;1072;-64
2022/08/13 03:18:31;;;;;;;;;;;;;;;;;;2213950;66;2017;-64
2022/08/13 03:21:07;;;;;;;;;;;;;;;;;;2213415;59;1239;-62
2022/08/13 03:23:43;;;;;;;;;;;;;;;;;;2214671;66;1233;-63
2022/08/13 03:26:16;;;;;;;;;;;;;;;;;;2214471;66;1139;-62
2022/08/13 03:28:50;;;;;;;;;;;;;;;;;;2214241;59;1082;-64
2022/08/13 03:31:24;;;;;;;;;;;;;;;;;;2214384;66;1316;-63
2022/08/13 03:33:58;;;;;;;;;;;;;;;;;;2214693;66;1219;-63
2022/08/13 03:36:36;;;;;;;;;;;;;;;;;;2213262;59;1314;-64
2022/08/13 03:39:09;;;;;;;;;;;;;;;;;;2213344;59;1990;-64
2022/08/13 03:41:43;;;;;;;;;;;;;;;;;;2214140;66;1116;-64
2022/08/13 03:44:16;;;;;;;;;;;;;;;;;;2214918;66;1192;-64
2022/08/13 03:46:49;;;;;;;;;;;;;;;;;;2214342;66;1235;-64
2022/08/13 03:49:22;;;;;;;;;;;;;;;;;;2214144;66;1128;-63
2022/08/13 03:51:58;;;;;;;;;;;;;;;;;;2214129;66;1445;-63
2022/08/13 03:54:32;;;;;;;;;;;;;;;;;;2214112;66;1234;-64
2022/08/13 03:57:05;;;;;;;;;;;;;;;;;;2214007;59;1200;-63
2022/08/13 03:59:40;;;;;;;;;;;;;;;;;;2213935;66;1140;-62
2022/08/13 04:02:13;;;;;;;;;;;;;;;;;;2213810;58;1745;-64
2022/08/13 04:04:47;;;;;;;;;;;;;;;;;;2215030;59;1274;-64
2022/08/13 04:07:27;;;;;;;;;;;;;;;;;;2214658;66;1238;-64
2022/08/13 04:10:01;;;;;;;;;;;;;;;;;;2213540;66;1201;-64
2022/08/13 04:12:34;;;;;;;;;;;;;;;;;;2214234;59;1243;-64
2022/08/13 04:15:09;;;;;;;;;;;;;;;;;;2213534;66;1218;-64
2022/08/13 04:17:42;;;;;;;;;;;;;;;;;;2214232;66;2467;-63
2022/08/13 04:20:15;;;;;;;;;;;;;;;;;;2213414;66;1056;-63
2022/08/13 04:22:52;;;;;;;;;;;;;;;;;;2213305;67;1245;-64
2022/08/13 04:25:25;;;;;;;;;;;;;;;;;;2213449;59;1186;-62
2022/08/13 04:27:58;;;;;;;;;;;;;;;;;;2214047;66;1274;-64
2022/08/13 04:30:35;;;;;;;;;;;;;;;;;;2212990;66;1167;-64
2022/08/13 04:33:09;;;;;;;;;;;;;;;;;;2213617;66;1197;-63
2022/08/13 04:35:43;;;;;;;;;;;;;;;;;;2214202;59;1414;-63
2022/08/13 04:38:19;;;;;;;;;;;;;;;;;;2212486;67;1949;-64
2022/08/13 04:40:52;;;;;;;;;;;;;;;;;;2213594;66;1158;-63
2022/08/13 04:43:26;;;;;;;;;;;;;;;;;;2213778;66;1350;-64
2022/08/13 04:46:00;;;;;;;;;;;;;;;;;;2214589;66;1303;-64
2022/08/13 04:48:35;;;;;;;;;;;;;;;;;;2213901;66;1208;-63
2022/08/13 04:51:08;;;;;;;;;;;;;;;;;;2213763;59;1240;-64
2022/08/13 04:53:44;;;;;;;;;;;;;;;;;;2213219;66;1291;-64
2022/08/13 04:56:17;;;;;;;;;;;;;;;;;;2213569;66;1201;-63
2022/08/13 04:58:50;;;;;;;;;;;;;;;;;;2213101;66;1928;-62
2022/08/13 05:01:23;;;;;;;;;;;;;;;;;;2213554;58;2352;-63
2022/08/13 05:03:57;;;;;;;;;;;;;;;;;;2213510;59;1615;-64
2022/08/13 05:06:30;;;;;;;;;;;;;;;;;;2213047;66;1194;-62
2022/08/13 05:09:06;;;;;;;;;;;;;;;;;;2213247;66;1211;-59
2022/08/13 05:11:40;;;;;;;;;;;;;;;;;;2213353;66;1339;-63
2022/08/13 05:14:13;;;;;;;;;;;;;;;;;;2214044;66;1229;-62
2022/08/13 05:16:46;;;;;;;;;;;;;;;;;;2213378;66;1048;-63
2022/08/13 05:19:19;;;;;;;;;;;;;;;;;;2213570;66;1992;-62
2022/08/13 05:21:52;;;;;;;;;;;;;;;;;;2212940;67;1148;-63
2022/08/13 05:24:29;;;;;;;;;;;;;;;;;;2213507;66;1258;-64
2022/08/13 05:27:02;;;;;;;;;;;;;;;;;;2212968;67;1266;-62
2022/08/13 05:29:37;;;;;;;;;;;;;;;;;;2213461;66;1096;-62
2022/08/13 05:32:10;;;;;;;;;;;;;;;;;;2212939;66;1222;-63
2022/08/13 05:34:44;;;;;;;;;;;;;;;;;;2213452;66;1096;-62
2022/08/13 05:37:18;;;;;;;;;;;;;;;;;;2213618;59;1427;-62
2022/08/13 05:39:54;;;;;;;;;;;;;;;;;;2213327;66;1937;-63
2022/08/13 05:42:28;;;;;;;;;;;;;;;;;;2214106;66;1166;-61
2022/08/13 05:45:01;;;;;;;;;;;;;;;;;;2213692;66;1430;-63
2022/08/13 05:47:34;;;;;;;;;;;;;;;;;;2215311;66;1179;-63
2022/08/13 05:50:13;;;;;;;;;;;;;;;;;;2213745;66;1519;-60
2022/08/13 05:52:46;;;;;;;;;;;;;;;;;;2214251;66;1261;-64
2022/08/13 05:55:22;;;;;;;;;;;;;;;;;;2214314;66;1214;-63
2022/08/13 05:57:57;;;;;;;;;;;;;;;;;;2213412;66;1936;-63
2022/08/13 06:03:28;;;;;;;;;;;;;;;;;;2214144;58;1722;-62
2022/08/13 06:06:01;;;;;;;;;;;;;;;;;;2214004;66;1088;-63
2022/08/13 06:08:36;;;;;;;;;;;;;;;;;;2215230;66;1131;-63
2022/08/13 06:11:15;;;;;;;;;;;;;;;;;;2214333;59;1653;-62
2022/08/13 06:13:51;;;;;;;;;;;;;;;;;;2213708;66;1200;-62
2022/08/13 06:16:28;;;;;;;;;;;;;;;;;;2213908;66;1269;-62
2022/08/13 06:19:03;;;;;;;;;;;;;;;;;;2213048;66;1987;-61
2022/08/13 06:21:37;;;;;;;;;;;;;;;;;;2213448;66;1007;-62
2022/08/13 06:24:12;;;;;;;;;;;;;;;;;;2214170;66;1278;-63
2022/08/13 06:26:51;;;;;;;;;;;;;;;;;;2214338;59;1175;-59
2022/08/13 06:29:26;;;;;;;;;;;;;;;;;;2213969;66;1132;-58
2022/08/13 06:31:59;;;;;;;;;;;;;;;;;;2213906;66;1256;-63
2022/08/13 06:34:35;;;;;;;;;;;;;;;;;;2213431;59;1277;-61
2022/08/13 06:37:08;;;;;;;;;;;;;;;;;;2214325;66;1174;-60
2022/08/13 06:39:43;;;;;;;;;;;;;;;;;;2214169;59;1997;-60
2022/08/13 06:42:20;;;;;;;;;;;;;;;;;;2214849;59;1290;-59
2022/08/13 06:44:54;;;;;;;;;;;;;;;;;;2213886;59;1252;-61
2022/08/13 06:47:29;;;;;;;;;;;;;;;;;;2214302;59;1233;-60
2022/08/13 06:50:04;;;;;;;;;;;;;;;;;;2216610;66;1198;-61
2022/08/13 06:52:37;;;;;;;;;;;;;;;;;;2214053;66;1157;-61
2022/08/13 06:55:11;;;;;;;;;;;;;;;;;;2214032;59;1324;-62
2022/08/13 06:57:48;;;;;;;;;;;;;;;;;;2214023;66;1170;-61
2022/08/13 07:00:25;;;;;;;;;;;;;;;;;;2213939;66;1944;-62
2022/08/13 07:02:59;;;;;;;;;;;;;;;;;;2214430;58;1713;-59
2022/08/13 07:05:40;;;;;;;;;;;;;;;;;;2213654;59;1205;-60
2022/08/13 07:08:14;;;;;;;;;;;;;;;;;;2214301;59;1196;-64
2022/08/13 07:11:21;;;;;;;;;;;;;;;;;;2214089;59;1305;-62
2022/08/13 07:13:45;;;;;;;;;;;;;;;;;;2213365;59;1394;-61
2022/08/13 07:16:19;;;;;;;;;;;;;;;;;;2213641;66;1302;-62
2022/08/13 07:18:53;;;;;;;;;;;;;;;;;;2213464;59;1974;-63
2022/08/13 07:21:26;;;;;;;;;;;;;;;;;;2214691;66;1223;-64
2022/08/13 07:24:02;;;;;;;;;;;;;;;;;;2214737;66;1323;-63
2022/08/13 07:26:36;;;;;;;;;;;;;;;;;;2213622;66;1085;-64
2022/08/13 07:29:12;;;;;;;;;;;;;;;;;;2212841;66;1506;-63
2022/08/13 07:31:45;;;;;;;;;;;;;;;;;;2213683;66;1115;-64
2022/08/13 07:34:19;;;;;;;;;;;;;;;;;;2212959;66;1300;-62
2022/08/13 07:36:54;;;;;;;;;;;;;;;;;;2213189;66;1125;-64
2022/08/13 07:39:28;;;;;;;;;;;;;;;;;;2213618;66;1932;-64
2022/08/13 07:42:01;;;;;;;;;;;;;;;;;;2214219;66;1290;-64
2022/08/13 07:44:37;;;;;;;;;;;;;;;;;;2212850;66;1148;-64
2022/08/13 07:47:14;;;;;;;;;;;;;;;;;;2213973;66;1108;-64
2022/08/13 07:49:47;;;;;;;;;;;;;;;;;;2213182;67;1189;-64
2022/08/13 07:52:20;;;;;;;;;;;;;;;;;;2213628;66;1250;-64
2022/08/13 07:54:54;;;;;;;;;;;;;;;;;;2213393;67;1156;-63
2022/08/13 07:57:30;;;;;;;;;;;;;;;;;;2213636;66;1206;-64
2022/08/13 08:00:08;;;;;;;;;;;;;;;;;;2213241;67;1977;-62
2022/08/13 08:02:42;;;;;;;;;;;;;;;;;;2214328;58;1587;-66
2022/08/13 08:05:16;;;;;;;;;;;;;;;;;;2213605;66;1219;-62
2022/08/13 08:07:50;;;;;;;;;;;;;;;;;;2213457;66;1150;-65
2022/08/13 08:10:23;;;;;;;;;;;;;;;;;;2213000;66;1971;-63
2022/08/13 08:13:00;;;;;;;;;;;;;;;;;;2213639;59;1329;-63
2022/08/13 08:15:37;;;;;;;;;;;;;;;;;;2213222;67;1160;-64
2022/08/13 08:18:11;;;;;;;;;;;;;;;;;;2213271;59;1201;-63
2022/08/13 08:20:45;;;;;;;;;;;;;;;;;;2213747;67;1928;-64
2022/08/13 08:23:19;;;;;;;;;;;;;;;;;;2213376;60;1267;-63
2022/08/13 08:25:54;;;;;;;;;;;;;;;;;;2213956;66;1147;-63
2022/08/13 08:28:28;;;;;;;;;;;;;;;;;;2214063;66;1297;-65
2022/08/13 08:31:06;;;;;;;;;;;;;;;;;;2213186;67;1225;-63
2022/08/13 08:33:43;;;;;;;;;;;;;;;;;;2213576;66;1250;-63
2022/08/13 08:36:16;;;;;;;;;;;;;;;;;;2213229;59;1360;-63
2022/08/13 08:44:30;;;;;;;;;;;;;;;;;;2213899;66;1254;-64
2022/08/13 08:47:07;;;;;;;;;;;;;;;;;;2213701;66;1207;-62
2022/08/13 08:49:43;;;;;;;;;;;;;;;;;;2214361;66;1860;-65
2022/08/13 08:52:17;;;;;;;;;;;;;;;;;;2212760;59;1800;-64
2022/08/13 08:54:50;;;;;;;;;;;;;;;;;;2214343;66;1103;-65
2022/08/13 08:57:23;;;;;;;;;;;;;;;;;;2213364;67;1245;-65
2022/08/13 08:59:57;;;;;;;;;;;;;;;;;;2213901;66;1932;-64
2022/08/13 09:02:33;;;;;;;;;;;;;;;;;;2213257;58;1828;-64
2022/08/13 09:05:07;;;;;;;;;;;;;;;;;;2213540;66;1180;-65
2022/08/13 09:07:41;;;;;;;;;;;;;;;;;;2213788;66;1207;-63
2022/08/13 09:10:15;;;;;;;;;;;;;;;;;;2214119;66;1265;-63
2022/08/13 09:12:50;;;;;;;;;;;;;;;;;;2213664;59;1299;-64
2022/08/13 09:15:24;;;;;;;;;;;;;;;;;;2214007;66;1224;-64
2022/08/13 09:18:01;;;;;;;;;;;;;;;;;;2213651;66;1160;-65
2022/08/13 09:20:35;;;;;;;;;;;;;;;;;;2214973;66;1933;-63
2022/08/13 09:23:12;;;;;;;;;;;;;;;;;;2215281;66;1233;-65
2022/08/13 09:25:51;;;;;;;;;;;;;;;;;;2214534;67;1160;-66
2022/08/13 09:28:26;;;;;;;;;;;;;;;;;;2214551;66;1258;-65
2022/08/13 09:30:59;;;;;;;;;;;;;;;;;;2214709;66;1244;-65
2022/08/13 09:33:38;;;;;;;;;;;;;;;;;;2214743;66;1262;-65
2022/08/13 09:36:12;;;;;;;;;;;;;;;;;;2214289;59;1388;-64
2022/08/13 09:38:46;;;;;;;;;;;;;;;;;;2215009;66;1184;-64
2022/08/13 09:41:23;;;;;;;;;;;;;;;;;;2215414;66;1978;-66
2022/08/13 09:43:58;;;;;;;;;;;;;;;;;;2214993;66;1520;-61
2022/08/13 09:46:35;;;;;;;;;;;;;;;;;;2214545;66;1572;-64
2022/08/13 09:49:12;;;;;;;;;;;;;;;;;;2215390;66;1169;-64
2022/08/13 09:51:45;;;;;;;;;;;;;;;;;;2214368;66;1893;-64
2022/08/13 09:54:22;;;;;;;;;;;;;;;;;;2214696;59;1289;-61
2022/08/13 09:56:58;;;;;;;;;;;;;;;;;;2214664;66;1197;-65
2022/08/13 09:59:33;;;;;;;;;;;;;;;;;;2215193;59;1986;-64
2022/08/13 10:02:09;;;;;;;;;;;;;;;;;;2214406;58;1726;-64
2022/08/13 10:04:46;;;;;;;;;;;;;;;;;;2215208;59;1258;-63
2022/08/13 10:07:19;;;;;;;;;;;;;;;;;;2215262;66;1215;-65
2022/08/13 10:09:53;;;;;;;;;;;;;;;;;;2215133;66;1309;-64
2022/08/13 10:12:26;;;;;;;;;;;;;;;;;;2215780;59;1246;-64
2022/08/13 10:15:00;;;;;;;;;;;;;;;;;;2215942;66;1252;-63
2022/08/13 10:17:45;;;;;;;;;;;;;;;;;;2215441;59;1153;-66
2022/08/13 10:20:22;;;;;;;;;;;;;;;;;;2213930;66;1929;-65
2022/08/13 10:22:56;;;;;;;;;;;;;;;;;;2214199;66;1202;-64
2022/08/13 10:25:32;;;;;;;;;;;;;;;;;;2216236;59;986;-64
2022/08/13 10:28:16;;;;;;;;;;;;;;;;;;2214741;66;1296;-62
2022/08/13 10:30:49;;;;;;;;;;;;;;;;;;2214816;59;1171;-64
2022/08/13 10:33:23;;;;;;;;;;;;;;;;;;2214300;67;1222;-61
2022/08/13 10:36:00;;;;;;;;;;;;;;;;;;2213885;66;1092;-63
2022/08/13 10:38:34;;;;;;;;;;;;;;;;;;2214437;66;1613;-62
2022/08/13 10:41:09;;;;;;;;;;;;;;;;;;2214239;66;1983;-64
2022/08/13 10:43:42;;;;;;;;;;;;;;;;;;2213536;59;1234;-65
2022/08/13 10:46:16;;;;;;;;;;;;;;;;;;2213296;59;1672;-63
2022/08/13 10:48:55;;;;;;;;;;;;;;;;;;2215069;66;1171;-64
2022/08/13 10:51:32;;;;;;;;;;;;;;;;;;2215824;59;1217;-64
2022/08/13 10:54:05;;;;;;;;;;;;;;;;;;2216118;66;2586;-64
2022/08/13 10:56:39;;;;;;;;;;;;;;;;;;2215483;66;1144;-65
2022/08/13 10:59:13;;;;;;;;;;;;;;;;;;2214379;59;1267;-64
2022/08/13 11:01:46;;;;;;;;;;;;;;;;;;2214328;58;1925;-66
2022/08/13 11:04:20;;;;;;;;;;;;;;;;;;2213965;59;1339;-63
2022/08/13 11:06:58;;;;;;;;;;;;;;;;;;2215204;59;1092;-63
2022/08/13 11:09:32;;;;;;;;;;;;;;;;;;2216437;66;1557;-63
2022/08/13 11:12:07;;;;;;;;;;;;;;;;;;2213791;66;1303;-63
2022/08/13 11:14:42;;;;;;;;;;;;;;;;;;2212717;67;2085;-63
2022/08/13 11:17:17;;;;;;;;;;;;;;;;;;2214497;66;1210;-64
2022/08/13 11:19:51;;;;;;;;;;;;;;;;;;2213217;59;2167;-62
2022/08/13 11:22:28;;;;;;;;;;;;;;;;;;2214249;66;1218;-64
2022/08/13 11:25:03;;;;;;;;;;;;;;;;;;2214236;59;1290;-65
2022/08/13 11:27:37;;;;;;;;;;;;;;;;;;2214015;59;1188;-63
2022/08/13 11:30:11;;;;;;;;;;;;;;;;;;2214963;66;1154;-62
2022/08/13 11:32:45;;;;;;;;;;;;;;;;;;2213608;66;1238;-65
2022/08/13 11:35:19;;;;;;;;;;;;;;;;;;2214072;59;1132;-63
2022/08/13 11:37:55;;;;;;;;;;;;;;;;;;2213811;66;1408;-65
2022/08/13 11:40:28;;;;;;;;;;;;;;;;;;2212851;66;1942;-65
2022/08/13 11:43:02;;;;;;;;;;;;;;;;;;2213803;66;1144;-61
2022/08/13 11:45:35;;;;;;;;;;;;;;;;;;2213423;59;1337;-64
2022/08/13 11:48:09;;;;;;;;;;;;;;;;;;2213515;66;1278;-64
2022/08/13 11:50:42;;;;;;;;;;;;;;;;;;2213471;66;1147;-64
2022/08/13 11:53:18;;;;;;;;;;;;;;;;;;2213550;66;1217;-66
2022/08/13 11:55:51;;;;;;;;;;;;;;;;;;2213720;66;1270;-64
2022/08/13 11:58:24;;;;;;;;;;;;;;;;;;2213034;67;1223;-65
2022/08/13 12:00:59;;;;;;;;;;;;;;;;;;2213456;66;1933;-65
2022/08/13 12:03:32;;;;;;;;;;;;;;;;;;2213380;58;2012;-63
2022/08/13 12:06:06;;;;;;;;;;;;;;;;;;2214372;66;1104;-66
2022/08/13 12:08:42;;;;;;;;;;;;;;;;;;2213909;66;1141;-65
2022/08/13 12:11:16;;;;;;;;;;;;;;;;;;2214101;66;1961;-64
2022/08/13 12:13:49;;;;;;;;;;;;;;;;;;2214416;66;1754;-63
2022/08/13 12:16:23;;;;;;;;;;;;;;;;;;2214347;66;1237;-65
2022/08/13 12:18:56;;;;;;;;;;;;;;;;;;2213270;66;1601;-65
2022/08/13 12:21:30;;;;;;;;;;;;;;;;;;2213314;66;1962;-64
2022/08/13 12:24:06;;;;;;;;;;;;;;;;;;2213837;66;1231;-63
2022/08/13 12:26:39;;;;;;;;;;;;;;;;;;2214520;66;1101;-66
2022/08/13 12:29:12;;;;;;;;;;;;;;;;;;2213915;66;1094;-64
2022/08/13 12:31:46;;;;;;;;;;;;;;;;;;2214620;66;1122;-64
2022/08/13 12:34:19;;;;;;;;;;;;;;;;;;2213676;66;1303;-64
2022/08/13 12:36:52;;;;;;;;;;;;;;;;;;2213041;59;1397;-61
2022/08/13 12:39:28;;;;;;;;;;;;;;;;;;2214290;66;1225;-64
2022/08/13 12:42:02;;;;;;;;;;;;;;;;;;2213369;66;1988;-64
2022/08/13 12:44:35;;;;;;;;;;;;;;;;;;2212679;67;1225;-64
2022/08/13 12:47:09;;;;;;;;;;;;;;;;;;2213735;66;1205;-63
2022/08/13 12:49:42;;;;;;;;;;;;;;;;;;2212956;59;1137;-64
2022/08/13 12:52:15;;;;;;;;;;;;;;;;;;2214540;66;1210;-65
2022/08/13 12:54:52;;;;;;;;;;;;;;;;;;2214470;66;1207;-64
2022/08/13 12:57:25;;;;;;;;;;;;;;;;;;2212960;67;1874;-63
2022/08/13 12:59:59;;;;;;;;;;;;;;;;;;2214807;59;1302;-65
2022/08/13 13:02:33;;;;;;;;;;;;;;;;;;2214552;58;1937;-64
2022/08/13 13:05:07;;;;;;;;;;;;;;;;;;2213521;66;1096;-63
2022/08/13 13:07:40;;;;;;;;;;;;;;;;;;2214315;66;1077;-64
2022/08/13 13:10:16;;;;;;;;;;;;;;;;;;2213648;66;1202;-64
2022/08/13 13:12:50;;;;;;;;;;;;;;;;;;2214085;59;1251;-65
2022/08/13 13:15:25;;;;;;;;;;;;;;;;;;2213470;67;1282;-64
2022/08/13 13:17:59;;;;;;;;;;;;;;;;;;2213867;67;1111;-65
2022/08/13 13:20:33;;;;;;;;;;;;;;;;;;2213731;59;1243;-64
2022/08/13 13:23:06;;;;;;;;;;;;;;;;;;2213782;59;1949;-65
2022/08/13 13:25:43;;;;;;;;;;;;;;;;;;2214484;66;1156;-65
2022/08/13 13:28:18;;;;;;;;;;;;;;;;;;2213422;66;1265;-64
2022/08/13 13:30:52;;;;;;;;;;;;;;;;;;2214241;66;1103;-64
2022/08/13 13:33:26;;;;;;;;;;;;;;;;;;2214993;66;1284;-64
2022/08/13 13:36:00;;;;;;;;;;;;;;;;;;2214163;66;1227;-66
2022/08/13 13:38:33;;;;;;;;;;;;;;;;;;2213789;66;2335;-64
2022/08/13 13:41:09;;;;;;;;;;;;;;;;;;2214342;59;1935;-64
2022/08/13 13:43:42;;;;;;;;;;;;;;;;;;2214499;66;1132;-64
2022/08/13 13:46:15;;;;;;;;;;;;;;;;;;2213991;66;1206;-64
2022/08/13 13:48:48;;;;;;;;;;;;;;;;;;2214617;66;1123;-65
2022/08/13 13:51:22;;;;;;;;;;;;;;;;;;2213686;59;1159;-65
2022/08/13 13:53:55;;;;;;;;;;;;;;;;;;2214666;66;1258;-64
2022/08/13 13:56:31;;;;;;;;;;;;;;;;;;2213478;67;1186;-65
2022/08/13 13:59:04;;;;;;;;;;;;;;;;;;2214224;66;1194;-65
2022/08/13 14:01:37;;;;;;;;;;;;;;;;;;2213925;58;1933;-64
2022/08/13 14:04:10;;;;;;;;;;;;;;;;;;2214483;59;1661;-65
2022/08/13 14:06:44;;;;;;;;;;;;;;;;;;2214780;59;1115;-65
2022/08/13 14:09:17;;;;;;;;;;;;;;;;;;2214465;59;1345;-65
2022/08/13 14:11:53;;;;;;;;;;;;;;;;;;2213597;59;1243;-64
2022/08/13 14:14:26;;;;;;;;;;;;;;;;;;2214252;66;1127;-64
2022/08/13 14:17:00;;;;;;;;;;;;;;;;;;2214518;66;1156;-63
2022/08/13 14:19:33;;;;;;;;;;;;;;;;;;2213543;66;1104;-64
2022/08/13 14:22:06;;;;;;;;;;;;;;;;;;2213281;59;1935;-64
2022/08/13 14:24:42;;;;;;;;;;;;;;;;;;2213783;66;1201;-64
2022/08/13 14:27:19;;;;;;;;;;;;;;;;;;2213632;67;1092;-62
2022/08/13 14:29:53;;;;;;;;;;;;;;;;;;2213929;59;1153;-65
2022/08/13 14:32:26;;;;;;;;;;;;;;;;;;2214378;66;1288;-64
2022/08/13 14:35:00;;;;;;;;;;;;;;;;;;2213828;67;1143;-65
2022/08/13 14:37:33;;;;;;;;;;;;;;;;;;2214073;59;1453;-63
2022/08/13 14:40:08;;;;;;;;;;;;;;;;;;2214610;66;1158;-64
2022/08/13 14:42:45;;;;;;;;;;;;;;;;;;2213419;67;1940;-64
2022/08/13 14:48:08;;;;;;;;;;;;;;;;;;2213690;67;1221;-64
2022/08/13 14:50:42;;;;;;;;;;;;;;;;;;2214929;66;1209;-63
2022/08/13 14:53:17;;;;;;;;;;;;;;;;;;2214004;66;1225;-64
2022/08/13 14:55:55;;;;;;;;;;;;;;;;;;2214045;66;1091;-62
2022/08/13 14:58:31;;;;;;;;;;;;;;;;;;2214074;67;1258;-64
2022/08/13 15:01:04;;;;;;;;;;;;;;;;;;2214723;66;1214;-65
2022/08/13 15:03:38;;;;;;;;;;;;;;;;;;2213610;59;1943;-65
2022/08/13 15:06:12;;;;;;;;;;;;;;;;;;2214021;59;1253;-64
2022/08/13 15:08:47;;;;;;;;;;;;;;;;;;2213734;66;1175;-64
2022/08/13 15:11:21;;;;;;;;;;;;;;;;;;2214402;59;1234;-63
2022/08/13 15:13:57;;;;;;;;;;;;;;;;;;2213524;67;1162;-64
2022/08/13 15:16:31;;;;;;;;;;;;;;;;;;2213831;67;1082;-63
2022/08/13 15:19:05;;;;;;;;;;;;;;;;;;2214746;66;1109;-65
2022/08/13 15:21:39;;;;;;;;;;;;;;;;;;2213932;66;1983;-65
2022/08/13 15:24:13;;;;;;;;;;;;;;;;;;2213950;66;1194;-65
2022/08/13 15:26:46;;;;;;;;;;;;;;;;;;2213769;66;1794;-63
2022/08/13 15:29:22;;;;;;;;;;;;;;;;;;2214346;66;1186;-63
2022/08/13 15:31:56;;;;;;;;;;;;;;;;;;2213899;67;1239;-65
2022/08/13 15:34:29;;;;;;;;;;;;;;;;;;2215034;66;1234;-63
2022/08/13 15:37:02;;;;;;;;;;;;;;;;;;2214840;59;1363;-63
2022/08/13 15:39:35;;;;;;;;;;;;;;;;;;2214747;66;1263;-62
2022/08/13 15:42:09;;;;;;;;;;;;;;;;;;2213915;67;1996;-62
2022/08/13 15:44:45;;;;;;;;;;;;;;;;;;2213238;66;1249;-65
2022/08/13 15:47:19;;;;;;;;;;;;;;;;;;2214781;66;1254;-65
2022/08/13 15:49:54;;;;;;;;;;;;;;;;;;2213844;66;1251;-65
2022/08/13 15:52:27;;;;;;;;;;;;;;;;;;2214965;66;1215;-65
2022/08/13 15:55:00;;;;;;;;;;;;;;;;;;2215042;66;1210;-64
2022/08/13 15:57:33;;;;;;;;;;;;;;;;;;2213258;67;1121;-65
2022/08/13 16:00:10;;;;;;;;;;;;;;;;;;2214142;66;1214;-64
2022/08/13 16:02:43;;;;;;;;;;;;;;;;;;2213251;58;1939;-63
2022/08/13 16:05:19;;;;;;;;;;;;;;;;;;2213765;66;1215;-62
2022/08/13 16:07:54;;;;;;;;;;;;;;;;;;2214767;66;1131;-65
2022/08/13 16:10:28;;;;;;;;;;;;;;;;;;2215112;66;1234;-65
2022/08/13 16:13:03;;;;;;;;;;;;;;;;;;2213979;59;1322;-65
2022/08/13 16:15:40;;;;;;;;;;;;;;;;;;2213681;66;1266;-65
2022/08/13 16:18:16;;;;;;;;;;;;;;;;;;2213403;67;1213;-65
2022/08/13 16:20:49;;;;;;;;;;;;;;;;;;2213471;66;1050;-63
2022/08/13 16:23:22;;;;;;;;;;;;;;;;;;2212979;67;2427;-65
2022/08/13 16:25:56;;;;;;;;;;;;;;;;;;2213409;66;1201;-64
2022/08/13 16:28:30;;;;;;;;;;;;;;;;;;2213101;59;2006;-64
2022/08/13 16:31:07;;;;;;;;;;;;;;;;;;2213727;66;1214;-64
2022/08/13 16:33:40;;;;;;;;;;;;;;;;;;2213342;67;1282;-65
2022/08/13 16:36:14;;;;;;;;;;;;;;;;;;2213999;58;1338;-65
2022/08/13 16:38:47;;;;;;;;;;;;;;;;;;2213633;66;1138;-63
2022/08/13 16:41:20;;;;;;;;;;;;;;;;;;2213379;66;1242;-64
2022/08/13 16:43:54;;;;;;;;;;;;;;;;;;2212811;67;2004;-65
2022/08/13 16:46:32;;;;;;;;;;;;;;;;;;2213790;66;1120;-65
2022/08/13 16:49:06;;;;;;;;;;;;;;;;;;2213473;67;1192;-64
2022/08/13 16:51:40;;;;;;;;;;;;;;;;;;2213048;59;1123;-64
2022/08/13 16:54:13;;;;;;;;;;;;;;;;;;2213729;66;1218;-63
2022/08/13 16:56:47;;;;;;;;;;;;;;;;;;2213428;66;1162;-65
2022/08/13 16:59:20;;;;;;;;;;;;;;;;;;2213159;66;1171;-64
2022/08/13 17:01:57;;;;;;;;;;;;;;;;;;2213752;58;1654;-63
2022/08/13 17:10:13;;;;;;;;;;;;;;;;;;2204798;66;1206;-64
2022/08/13 17:12:46;;;;;;;;;;;;;;;;;;2213993;59;1274;-64
2022/08/13 17:15:20;;;;;;;;;;;;;;;;;;2213518;66;1229;-60
2022/08/13 17:17:56;;;;;;;;;;;;;;;;;;2213741;66;1190;-63
2022/08/13 17:20:29;;;;;;;;;;;;;;;;;;2213236;66;1119;-61
2022/08/13 17:23:05;;;;;;;;;;;;;;;;;;2213142;59;1919;-60
2022/08/13 17:25:38;;;;;;;;;;;;;;;;;;2213673;66;1023;-62
2022/08/13 17:28:11;;;;;;;;;;;;;;;;;;2213165;66;1241;-63
2022/08/13 17:30:44;;;;;;;;;;;;;;;;;;2213371;66;1098;-64
2022/08/13 17:33:20;;;;;;;;;;;;;;;;;;2213108;66;1320;-63
2022/08/13 17:35:54;;;;;;;;;;;;;;;;;;2213149;66;1148;-64
2022/08/13 17:38:28;;;;;;;;;;;;;;;;;;2214354;66;1205;-62
2022/08/13 17:41:01;;;;;;;;;;;;;;;;;;2213997;66;1320;-63
2022/08/13 17:43:34;;;;;;;;;;;;;;;;;;2213797;66;1976;-64
2022/08/13 17:46:07;;;;;;;;;;;;;;;;;;2213203;67;1223;-64
2022/08/13 17:48:44;;;;;;;;;;;;;;;;;;2213951;66;1051;-64
2022/08/13 17:51:20;;;;;;;;;;;;;;;;;;2213360;66;1174;-63
2022/08/13 17:53:53;;;;;;;;;;;;;;;;;;2213767;66;1242;-63
2022/08/13 17:56:26;;;;;;;;;;;;;;;;;;2214190;66;1240;-64
2022/08/13 17:58:59;;;;;;;;;;;;;;;;;;2213826;59;1285;-64
2022/08/13 18:01:33;;;;;;;;;;;;;;;;;;2214081;59;1765;-64
2022/08/13 18:04:10;;;;;;;;;;;;;;;;;;2214151;59;1923;-61
2022/08/13 18:06:46;;;;;;;;;;;;;;;;;;2213473;66;1178;-63
2022/08/13 18:09:21;;;;;;;;;;;;;;;;;;2214719;66;1201;-63
2022/08/13 18:11:55;;;;;;;;;;;;;;;;;;2213695;59;1286;-64
2022/08/13 18:14:29;;;;;;;;;;;;;;;;;;2213818;66;1198;-64
2022/08/13 18:17:03;;;;;;;;;;;;;;;;;;2213569;66;1262;-64
2022/08/13 18:19:39;;;;;;;;;;;;;;;;;;2213194;67;1097;-63
2022/08/13 18:22:12;;;;;;;;;;;;;;;;;;2213077;66;1258;-64
2022/08/13 18:24:45;;;;;;;;;;;;;;;;;;2213552;66;1957;-64
2022/08/13 18:27:18;;;;;;;;;;;;;;;;;;2213470;66;1248;-64
2022/08/13 18:29:52;;;;;;;;;;;;;;;;;;2213589;66;1158;-64